Time;durP1;ratioP1;P1;durP2;ratioP2;P2;SDS_P1;SDS_P2;PMS_P1;PMS_P2;Temp;Humidity;BMP_temperature;BMP_pressure;BME280_temperature;BME280_humidity;BME280_pressure;Samples;Min_cycle;Max_cycle;Signal;HPM_P1;HPM_P2
2022/07/07 00:02:09;;;;;;;1.30;0.75;;;;;;;;;;5074378;28;20388;-84
2022/07/07 00:04:35;;;;;;;1.20;0.98;;;;;;;;;;5074298;28;20415;-84
2022/07/07 00:07:01;;;;;;;0.85;0.85;;;;;;;;;;5074020;28;20415;-84
2022/07/07 00:09:29;;;;;;;1.17;0.77;;;;;;;;;;5073540;28;20388;-84
2022/07/07 00:11:55;;;;;;;1.20;0.70;;;;;;;;;;5074042;28;20810;-83
2022/07/07 00:14:21;;;;;;;2.10;1.00;;;;;;;;;;5073921;28;20471;-84
2022/07/07 00:16:47;;;;;;;1.40;0.93;;;;;;;;;;5073477;28;20446;-84
2022/07/07 00:19:14;;;;;;;1.42;0.90;;;;;;;;;;5073789;28;20383;-84
2022/07/07 00:21:39;;;;;;;2.08;0.82;;;;;;;;;;5073525;28;20450;-84
2022/07/07 00:24:06;;;;;;;2.20;0.80;;;;;;;;;;5073844;28;20376;-84
2022/07/07 00:26:32;;;;;;;2.20;1.20;;;;;;;;;;5073248;28;20403;-84
2022/07/07 00:28:58;;;;;;;2.10;0.90;;;;;;;;;;5073650;28;20372;-84
2022/07/07 00:31:24;;;;;;;1.40;0.87;;;;;;;;;;5076015;28;20467;-84
2022/07/07 00:33:51;;;;;;;1.90;0.77;;;;;;;;;;5073559;28;20433;-84
2022/07/07 00:36:16;;;;;;;2.22;1.00;;;;;;;;;;5071786;28;20541;-84
2022/07/07 00:38:42;;;;;;;1.70;0.90;;;;;;;;;;5073092;28;20893;-83
2022/07/07 00:41:09;;;;;;;1.90;0.80;;;;;;;;;;5071498;28;20386;-83
2022/07/07 00:43:36;;;;;;;2.22;0.90;;;;;;;;;;5073498;28;20781;-84
2022/07/07 00:46:03;;;;;;;1.45;0.80;;;;;;;;;;5063502;28;20439;-83
2022/07/07 00:48:29;;;;;;;1.83;0.90;;;;;;;;;;5053415;28;20373;-84
2022/07/07 00:50:55;;;;;;;2.30;1.10;;;;;;;;;;5052977;28;20377;-83
2022/07/07 00:53:21;;;;;;;1.70;0.90;;;;;;;;;;5053086;28;20373;-83
2022/07/07 00:55:47;;;;;;;1.70;1.00;;;;;;;;;;5052132;28;20786;-84
2022/07/07 00:58:13;;;;;;;1.08;0.80;;;;;;;;;;5053218;28;20859;-83
2022/07/07 01:00:39;;;;;;;1.00;0.85;;;;;;;;;;5053023;28;20403;-83
2022/07/07 01:03:05;;;;;;;1.20;1.00;;;;;;;;;;5051836;28;20390;-83
2022/07/07 01:05:32;;;;;;;1.80;1.00;;;;;;;;;;5052606;28;20464;-84
2022/07/07 01:08:00;;;;;;;1.60;0.90;;;;;;;;;;5052822;28;20409;-84
2022/07/07 01:10:26;;;;;;;1.58;1.20;;;;;;;;;;5052402;28;20382;-83
2022/07/07 01:12:52;;;;;;;2.33;1.07;;;;;;;;;;5052867;28;20735;-83
2022/07/07 01:15:18;;;;;;;2.17;0.98;;;;;;;;;;5052873;28;20859;-83
2022/07/07 01:17:44;;;;;;;1.58;1.00;;;;;;;;;;5052734;28;20389;-84
2022/07/07 01:20:11;;;;;;;1.15;0.90;;;;;;;;;;5052732;28;20397;-83
2022/07/07 01:22:37;;;;;;;2.55;1.10;;;;;;;;;;5060854;28;20392;-83
2022/07/07 01:25:04;;;;;;;1.48;0.90;;;;;;;;;;5073025;28;20467;-83
2022/07/07 01:27:30;;;;;;;1.77;1.10;;;;;;;;;;5072242;28;20400;-83
2022/07/07 01:29:57;;;;;;;1.77;0.95;;;;;;;;;;5072207;28;20446;-83
2022/07/07 01:32:24;;;;;;;1.53;1.13;;;;;;;;;;5072491;28;20380;-83
2022/07/07 01:34:51;;;;;;;1.20;1.10;;;;;;;;;;5072385;28;20375;-83
2022/07/07 01:37:18;;;;;;;2.42;1.13;;;;;;;;;;5071777;28;20453;-83
2022/07/07 01:39:44;;;;;;;1.25;1.00;;;;;;;;;;5072356;28;20845;-83
2022/07/07 01:42:11;;;;;;;3.10;1.10;;;;;;;;;;5072347;28;20394;-83
2022/07/07 01:44:38;;;;;;;1.70;1.00;;;;;;;;;;5072076;28;20394;-83
2022/07/07 01:47:04;;;;;;;3.05;1.10;;;;;;;;;;5071567;28;20991;-83
2022/07/07 01:49:31;;;;;;;2.60;1.00;;;;;;;;;;5072230;28;20380;-83
2022/07/07 01:51:57;;;;;;;1.70;0.90;;;;;;;;;;5072168;28;20383;-83
2022/07/07 01:54:23;;;;;;;1.73;0.90;;;;;;;;;;5070712;28;20380;-83
2022/07/07 01:56:49;;;;;;;1.95;1.15;;;;;;;;;;5071174;28;20423;-83
2022/07/07 01:59:15;;;;;;;1.35;1.00;;;;;;;;;;5072393;28;20387;-83
2022/07/07 02:01:41;;;;;;;1.92;1.30;;;;;;;;;;5071657;28;20807;-83
2022/07/07 02:04:07;;;;;;;2.17;1.20;;;;;;;;;;5072137;28;20421;-83
2022/07/07 02:06:34;;;;;;;2.08;1.25;;;;;;;;;;5071879;28;20403;-83
2022/07/07 02:09:00;;;;;;;1.70;1.10;;;;;;;;;;5072031;28;20849;-83
2022/07/07 02:11:27;;;;;;;2.20;1.10;;;;;;;;;;5070530;28;20383;-83
2022/07/07 02:13:54;;;;;;;1.55;1.20;;;;;;;;;;5072056;28;20367;-83
2022/07/07 02:16:21;;;;;;;1.70;1.30;;;;;;;;;;5070686;28;20388;-83
2022/07/07 02:18:48;;;;;;;1.23;1.10;;;;;;;;;;5071689;28;20415;-83
2022/07/07 02:21:14;;;;;;;3.03;1.20;;;;;;;;;;5071623;28;20431;-83
2022/07/07 02:23:42;;;;;;;3.70;1.27;;;;;;;;;;5071895;28;20420;-83
2022/07/07 02:26:08;;;;;;;2.03;1.20;;;;;;;;;;5071683;28;20481;-83
2022/07/07 02:28:34;;;;;;;2.40;1.30;;;;;;;;;;5070370;28;20868;-83
2022/07/07 02:31:00;;;;;;;2.25;1.20;;;;;;;;;;5071851;28;20392;-83
2022/07/07 02:33:27;;;;;;;2.50;1.23;;;;;;;;;;5075489;28;20546;-83
2022/07/07 02:35:53;;;;;;;2.78;1.30;;;;;;;;;;5068798;28;20465;-83
2022/07/07 02:38:20;;;;;;;2.35;1.23;;;;;;;;;;5065000;28;20379;-83
2022/07/07 02:40:46;;;;;;;1.83;1.30;;;;;;;;;;5071736;28;20398;-83
2022/07/07 02:43:15;;;;;;;1.35;1.23;;;;;;;;;;5071840;28;20379;-83
2022/07/07 02:45:41;;;;;;;1.60;1.15;;;;;;;;;;5071283;28;20873;-83
2022/07/07 02:48:09;;;;;;;2.10;1.10;;;;;;;;;;5070455;28;20738;-83
2022/07/07 02:50:35;;;;;;;1.65;1.10;;;;;;;;;;5071054;28;20436;-83
2022/07/07 02:53:01;;;;;;;1.67;1.20;;;;;;;;;;5071569;28;20513;-83
2022/07/07 02:55:27;;;;;;;1.45;1.13;;;;;;;;;;5069978;28;20394;-83
2022/07/07 02:57:53;;;;;;;4.07;1.20;;;;;;;;;;5072528;28;20376;-83
2022/07/07 03:00:19;;;;;;;2.03;1.00;;;;;;;;;;5075298;28;20374;-83
2022/07/07 03:02:45;;;;;;;1.40;1.27;;;;;;;;;;5074875;28;20844;-83
2022/07/07 03:05:11;;;;;;;3.22;1.40;;;;;;;;;;5074344;28;20380;-83
2022/07/07 03:07:40;;;;;;;1.70;1.30;;;;;;;;;;5073659;28;20419;-83
2022/07/07 03:10:07;;;;;;;2.28;1.40;;;;;;;;;;5074651;28;20898;-83
2022/07/07 03:12:33;;;;;;;1.50;1.10;;;;;;;;;;5075100;28;20371;-83
2022/07/07 03:15:00;;;;;;;1.70;1.20;;;;;;;;;;5073854;28;20881;-83
2022/07/07 03:17:26;;;;;;;2.22;1.27;;;;;;;;;;5074946;28;20388;-83
2022/07/07 03:19:54;;;;;;;3.00;1.33;;;;;;;;;;5074681;28;20414;-83
2022/07/07 03:22:20;;;;;;;2.40;1.40;;;;;;;;;;5074771;28;20402;-83
2022/07/07 03:24:46;;;;;;;2.50;1.60;;;;;;;;;;5074959;28;20852;-83
2022/07/07 03:27:12;;;;;;;2.13;1.40;;;;;;;;;;5074990;28;20460;-83
2022/07/07 03:29:38;;;;;;;2.28;1.38;;;;;;;;;;5074336;28;20402;-83
2022/07/07 03:32:07;;;;;;;2.05;1.17;;;;;;;;;;5073788;28;20865;-83
2022/07/07 03:34:33;;;;;;;1.98;1.30;;;;;;;;;;5074692;28;20380;-83
2022/07/07 03:36:59;;;;;;;2.63;1.50;;;;;;;;;;5074269;28;20386;-83
2022/07/07 03:39:25;;;;;;;1.60;1.38;;;;;;;;;;5073130;28;20403;-83
2022/07/07 03:41:51;;;;;;;1.52;1.27;;;;;;;;;;5074638;28;20388;-83
2022/07/07 03:44:17;;;;;;;1.50;1.33;;;;;;;;;;5074625;28;20890;-83
2022/07/07 03:46:44;;;;;;;2.13;1.35;;;;;;;;;;5074106;28;20415;-83
2022/07/07 03:49:10;;;;;;;2.72;1.33;;;;;;;;;;5074363;28;20375;-83
2022/07/07 03:51:36;;;;;;;3.42;1.38;;;;;;;;;;5074285;28;20479;-83
2022/07/07 03:54:02;;;;;;;2.05;1.55;;;;;;;;;;5073950;28;20375;-83
2022/07/07 03:56:28;;;;;;;2.33;1.52;;;;;;;;;;5074403;28;20384;-83
2022/07/07 03:58:54;;;;;;;2.00;1.33;;;;;;;;;;5072974;28;20752;-83
2022/07/07 04:01:20;;;;;;;3.33;1.33;;;;;;;;;;5074248;28;20390;-83
2022/07/07 04:03:46;;;;;;;2.50;1.52;;;;;;;;;;5074360;28;20376;-83
2022/07/07 04:06:12;;;;;;;3.63;1.80;;;;;;;;;;5073499;28;20488;-83
2022/07/07 04:08:39;;;;;;;3.20;1.48;;;;;;;;;;5073767;28;20380;-83
2022/07/07 04:11:05;;;;;;;2.03;1.45;;;;;;;;;;5073885;28;20409;-83
2022/07/07 04:13:31;;;;;;;1.45;1.35;;;;;;;;;;5073744;28;20424;-83
2022/07/07 04:15:57;;;;;;;1.60;1.50;;;;;;;;;;5073945;28;20379;-84
2022/07/07 04:18:24;;;;;;;3.60;1.45;;;;;;;;;;5073955;28;20374;-84
2022/07/07 04:20:50;;;;;;;2.20;1.50;;;;;;;;;;5073344;28;20399;-84
2022/07/07 04:23:16;;;;;;;1.75;1.50;;;;;;;;;;5073011;28;20395;-83
2022/07/07 04:25:42;;;;;;;1.63;1.50;;;;;;;;;;5073802;28;20376;-83
2022/07/07 04:28:11;;;;;;;1.90;1.60;;;;;;;;;;5072334;28;21285;-83
2022/07/07 04:30:37;;;;;;;2.67;1.40;;;;;;;;;;5073407;28;20741;-84
2022/07/07 04:33:03;;;;;;;3.97;1.77;;;;;;;;;;5073640;28;20372;-84
2022/07/07 04:35:29;;;;;;;1.90;1.70;;;;;;;;;;5072876;28;20380;-85
2022/07/07 04:37:55;;;;;;;2.83;1.73;;;;;;;;;;5072409;28;20841;-84
2022/07/07 04:40:21;;;;;;;2.67;1.38;;;;;;;;;;5071193;28;20387;-84
2022/07/07 04:42:47;;;;;;;3.85;1.90;;;;;;;;;;5068687;28;20374;-84
2022/07/07 04:45:13;;;;;;;2.40;1.70;;;;;;;;;;5069542;28;20382;-84
2022/07/07 04:47:40;;;;;;;1.90;1.55;;;;;;;;;;5067647;28;20464;-84
2022/07/07 04:50:07;;;;;;;2.67;1.70;;;;;;;;;;5073226;28;20376;-85
2022/07/07 04:52:33;;;;;;;2.20;1.48;;;;;;;;;;5073019;28;20421;-83
2022/07/07 04:54:59;;;;;;;2.88;1.60;;;;;;;;;;5072892;28;20871;-83
2022/07/07 04:57:25;;;;;;;2.37;1.40;;;;;;;;;;5072350;28;20388;-84
2022/07/07 04:59:51;;;;;;;1.90;1.38;;;;;;;;;;5071656;28;20379;-84
2022/07/07 05:02:17;;;;;;;1.73;1.63;;;;;;;;;;5057258;28;20859;-84
2022/07/07 05:04:43;;;;;;;1.60;1.38;;;;;;;;;;5052800;28;20388;-84
2022/07/07 05:07:09;;;;;;;4.83;1.80;;;;;;;;;;5052735;28;20405;-84
2022/07/07 05:09:35;;;;;;;2.08;1.42;;;;;;;;;;5052606;28;20413;-84
2022/07/07 05:12:01;;;;;;;1.80;1.50;;;;;;;;;;5053198;28;20396;-83
2022/07/07 05:14:27;;;;;;;2.22;1.65;;;;;;;;;;5053456;28;20411;-83
2022/07/07 05:16:54;;;;;;;1.40;1.30;;;;;;;;;;5052835;28;20392;-82
2022/07/07 05:19:20;;;;;;;2.30;1.88;;;;;;;;;;5052308;28;20377;-81
2022/07/07 05:21:46;;;;;;;3.15;1.80;;;;;;;;;;5051886;28;20922;-82
2022/07/07 05:24:12;;;;;;;2.25;1.52;;;;;;;;;;5052676;28;20388;-82
2022/07/07 05:26:38;;;;;;;2.30;1.70;;;;;;;;;;5052609;28;20971;-82
2022/07/07 05:29:04;;;;;;;3.83;1.42;;;;;;;;;;5069345;28;20407;-83
2022/07/07 05:31:30;;;;;;;3.90;1.60;;;;;;;;;;5068349;28;20406;-83
2022/07/07 05:33:56;;;;;;;2.50;1.92;;;;;;;;;;5164641;22;20377;-82
2022/07/07 05:36:22;;;;;;;2.80;1.80;;;;;;;;;;5074206;28;20375;-82
2022/07/07 05:38:49;;;;;;;7.85;4.43;;;;;;;;;;5073880;28;20380;-82
2022/07/07 05:41:15;;;;;;;5.28;1.98;;;;;;;;;;5072501;28;20384;-84
2022/07/07 05:43:41;;;;;;;4.23;2.10;;;;;;;;;;5078010;28;20767;-83
2022/07/07 05:46:07;;;;;;;4.43;2.28;;;;;;;;;;5074945;28;20394;-82
2022/07/07 05:48:33;;;;;;;3.53;2.13;;;;;;;;;;5069106;28;20380;-82
2022/07/07 05:50:59;;;;;;;2.22;1.83;;;;;;;;;;5071905;28;20730;-82
2022/07/07 05:53:25;;;;;;;3.40;1.90;;;;;;;;;;5071578;28;20383;-81
2022/07/07 05:55:51;;;;;;;4.10;2.50;;;;;;;;;;5071889;28;20380;-82
2022/07/07 05:58:17;;;;;;;5.18;2.40;;;;;;;;;;5072155;28;20464;-82
2022/07/07 06:00:43;;;;;;;3.83;2.28;;;;;;;;;;5071831;28;20380;-82
2022/07/07 06:03:09;;;;;;;4.45;2.35;;;;;;;;;;5071890;28;20390;-82
2022/07/07 06:05:35;;;;;;;2.90;2.03;;;;;;;;;;5071772;28;20492;-82
2022/07/07 06:08:01;;;;;;;4.13;2.30;;;;;;;;;;5071619;28;20403;-82
2022/07/07 06:10:27;;;;;;;2.75;2.30;;;;;;;;;;5071176;28;20459;-82
2022/07/07 06:12:53;;;;;;;5.30;2.45;;;;;;;;;;5072121;28;20800;-82
2022/07/07 06:15:20;;;;;;;3.08;2.20;;;;;;;;;;5071683;28;20398;-81
2022/07/07 06:17:47;;;;;;;2.03;1.70;;;;;;;;;;5071418;28;20376;-82
2022/07/07 06:20:13;;;;;;;3.50;2.00;;;;;;;;;;5071806;28;20386;-81
2022/07/07 06:22:39;;;;;;;4.82;1.73;;;;;;;;;;5070824;28;20793;-83
2022/07/07 06:25:09;;;;;;;2.08;1.63;;;;;;;;;;5071706;28;20398;-84
2022/07/07 06:27:35;;;;;;;3.42;1.70;;;;;;;;;;5071098;28;20442;-81
2022/07/07 06:30:03;;;;;;;5.28;1.98;;;;;;;;;;5064791;28;20432;-82
2022/07/07 06:32:29;;;;;;;3.53;1.35;;;;;;;;;;5069036;28;20427;-83
2022/07/07 06:34:55;;;;;;;2.92;1.50;;;;;;;;;;5068913;28;20406;-83
2022/07/07 06:37:21;;;;;;;5.28;1.70;;;;;;;;;;5068442;28;20386;-82
2022/07/07 06:39:47;;;;;;;1.80;1.60;;;;;;;;;;5074357;28;20449;-83
2022/07/07 06:42:14;;;;;;;2.15;1.35;;;;;;;;;;5073915;28;20449;-82
2022/07/07 06:44:40;;;;;;;3.20;1.58;;;;;;;;;;5073102;28;20383;-82
2022/07/07 06:47:06;;;;;;;1.88;1.45;;;;;;;;;;5073792;28;20404;-82
2022/07/07 06:49:32;;;;;;;1.77;1.50;;;;;;;;;;5063948;28;20463;-82
2022/07/07 06:51:58;;;;;;;2.58;1.40;;;;;;;;;;5055286;28;20432;-82
2022/07/07 06:54:24;;;;;;;3.22;1.48;;;;;;;;;;5054500;28;20926;-83
2022/07/07 06:56:50;;;;;;;2.25;1.55;;;;;;;;;;5074056;28;20387;-83
2022/07/07 06:59:17;;;;;;;3.35;1.25;;;;;;;;;;5073991;28;20380;-83
2022/07/07 07:01:44;;;;;;;3.25;1.33;;;;;;;;;;5071494;28;20391;-85
2022/07/07 07:04:13;;;;;;;1.55;1.08;;;;;;;;;;5073297;28;20442;-82
2022/07/07 07:06:39;;;;;;;2.00;1.10;;;;;;;;;;5072433;28;20500;-82
2022/07/07 07:09:05;;;;;;;3.40;1.20;;;;;;;;;;5073617;28;20380;-83
2022/07/07 07:11:31;;;;;;;3.65;1.48;;;;;;;;;;5075235;28;20463;-82
2022/07/07 07:13:58;;;;;;;1.27;1.10;;;;;;;;;;5074783;28;20791;-83
2022/07/07 07:16:25;;;;;;;3.13;1.43;;;;;;;;;;5075157;28;20508;-83
2022/07/07 07:18:54;;;;;;;1.55;1.15;;;;;;;;;;5074983;28;20404;-83
2022/07/07 07:21:20;;;;;;;1.65;1.10;;;;;;;;;;5072550;28;20475;-85
2022/07/07 07:23:46;;;;;;;1.98;1.20;;;;;;;;;;5074320;28;20450;-83
2022/07/07 07:26:12;;;;;;;2.73;1.30;;;;;;;;;;5073426;28;20384;-84
2022/07/07 07:28:38;;;;;;;2.67;1.20;;;;;;;;;;5067641;28;20868;-84
2022/07/07 07:31:04;;;;;;;2.50;1.02;;;;;;;;;;5074485;28;20372;-84
2022/07/07 07:33:31;;;;;;;1.77;1.10;;;;;;;;;;5074490;28;20865;-85
2022/07/07 07:35:57;;;;;;;2.30;1.10;;;;;;;;;;5080069;28;20404;-85
2022/07/07 07:38:23;;;;;;;2.33;1.07;;;;;;;;;;5074597;28;20403;-83
2022/07/07 07:40:49;;;;;;;8.35;6.40;;;;;;;;;;5073646;28;20464;-83
2022/07/07 07:43:15;;;;;;;1.80;1.15;;;;;;;;;;5071768;28;20388;-83
2022/07/07 07:45:41;;;;;;;2.47;1.00;;;;;;;;;;5074399;28;20383;-83
2022/07/07 07:48:07;;;;;;;2.97;1.30;;;;;;;;;;5058103;28;20407;-84
2022/07/07 07:50:33;;;;;;;2.80;1.03;;;;;;;;;;5056551;28;20427;-83
2022/07/07 07:53:00;;;;;;;1.70;1.00;;;;;;;;;;5058805;28;20435;-83
2022/07/07 07:55:26;;;;;;;1.77;1.02;;;;;;;;;;5073052;28;20411;-83
2022/07/07 07:57:52;;;;;;;2.55;0.98;;;;;;;;;;5073622;28;20437;-83
2022/07/07 08:00:20;;;;;;;2.03;1.08;;;;;;;;;;5074234;28;20423;-83
2022/07/07 08:02:47;;;;;;;2.63;1.00;;;;;;;;;;5074093;28;20406;-83
2022/07/07 08:05:14;;;;;;;2.77;1.20;;;;;;;;;;5073567;28;20384;-84
2022/07/07 08:07:40;;;;;;;3.10;1.20;;;;;;;;;;5074153;28;20533;-84
2022/07/07 08:10:08;;;;;;;7.13;1.15;;;;;;;;;;5074314;28;20865;-84
2022/07/07 08:12:34;;;;;;;3.90;1.42;;;;;;;;;;5072823;28;20372;-86
2022/07/07 08:15:00;;;;;;;1.88;0.90;;;;;;;;;;5073127;28;20386;-86
2022/07/07 08:17:26;;;;;;;2.53;1.10;;;;;;;;;;5072588;28;20376;-86
2022/07/07 08:19:52;;;;;;;1.77;0.90;;;;;;;;;;5072802;28;20433;-85
2022/07/07 08:22:18;;;;;;;3.30;1.20;;;;;;;;;;5072745;28;20376;-85
2022/07/07 08:24:44;;;;;;;1.75;1.00;;;;;;;;;;5071586;28;20392;-84
2022/07/07 08:27:10;;;;;;;1.27;1.00;;;;;;;;;;5072036;28;20419;-84
2022/07/07 08:29:38;;;;;;;2.42;0.90;;;;;;;;;;5072559;28;20376;-84
2022/07/07 08:32:07;;;;;;;8.70;3.75;;;;;;;;;;5073478;28;20421;-85
2022/07/07 08:34:34;;;;;;;3.97;1.23;;;;;;;;;;5072409;28;20453;-84
2022/07/07 08:37:00;;;;;;;2.13;0.90;;;;;;;;;;5073402;28;20388;-84
2022/07/07 08:39:26;;;;;;;2.95;1.08;;;;;;;;;;5073150;28;20387;-83
2022/07/07 08:41:52;;;;;;;2.00;0.93;;;;;;;;;;5073240;28;20380;-82
2022/07/07 08:44:18;;;;;;;3.00;0.90;;;;;;;;;;5071864;28;20394;-85
2022/07/07 08:46:44;;;;;;;2.22;0.90;;;;;;;;;;5092886;28;20401;-85
2022/07/07 08:49:10;;;;;;;3.13;1.30;;;;;;;;;;5093401;28;20370;-83
2022/07/07 08:51:41;;;;;;;4.07;1.10;;;;;;;;;;5092917;28;20378;-83
2022/07/07 08:54:09;;;;;;;2.92;0.98;;;;;;;;;;5093267;28;20370;-83
2022/07/07 08:56:36;;;;;;;1.70;1.10;;;;;;;;;;5086420;28;20384;-83
2022/07/07 08:59:02;;;;;;;4.00;1.10;;;;;;;;;;5070024;28;20404;-83
2022/07/07 09:01:29;;;;;;;3.30;1.73;;;;;;;;;;5071323;28;20429;-83
2022/07/07 09:03:55;;;;;;;2.67;1.10;;;;;;;;;;5072485;28;20387;-83
2022/07/07 09:06:21;;;;;;;2.60;1.00;;;;;;;;;;5071464;28;20410;-83
2022/07/07 09:08:47;;;;;;;2.97;0.80;;;;;;;;;;5072114;28;20936;-82
2022/07/07 09:11:13;;;;;;;5.40;1.30;;;;;;;;;;5072674;28;20380;-83
2022/07/07 09:13:39;;;;;;;2.30;1.10;;;;;;;;;;5071118;28;20453;-82
2022/07/07 09:16:13;;;;;;;1.60;0.80;;;;;;;;;;5072512;28;20376;-83
2022/07/07 09:18:40;;;;;;;6.70;1.10;;;;;;;;;;5072428;28;20903;-83
2022/07/07 09:21:07;;;;;;;16.77;1.92;;;;;;;;;;5072063;28;20383;-83
2022/07/07 09:23:34;;;;;;;2.10;0.82;;;;;;;;;;5072372;28;20383;-83
2022/07/07 09:26:00;;;;;;;25.33;1.85;;;;;;;;;;5072257;28;20398;-83
2022/07/07 09:28:27;;;;;;;3.95;1.08;;;;;;;;;;5071669;28;20409;-83
2022/07/07 09:30:53;;;;;;;1.70;1.05;;;;;;;;;;5072501;28;20391;-83
2022/07/07 09:33:21;;;;;;;10.40;1.30;;;;;;;;;;5072280;28;20376;-83
2022/07/07 09:38:32;;;;;;;8.80;1.10;;;;;;;;;;5072486;28;20908;-84
2022/07/07 09:41:00;;;;;;;5.65;1.30;;;;;;;;;;5071744;28;20929;-84
2022/07/07 09:43:27;;;;;;;64.72;3.83;;;;;;;;;;5069231;28;20441;-84
2022/07/07 09:46:13;;;;;;;5.32;1.00;;;;;;;;;;5071846;28;20409;-85
2022/07/07 09:48:40;;;;;;;11.88;1.60;;;;;;;;;;5071687;28;20395;-85
2022/07/07 09:51:15;;;;;;;3.30;0.77;;;;;;;;;;5072145;28;20923;-84
2022/07/07 09:53:56;;;;;;;2.03;0.70;;;;;;;;;;5072012;28;20375;-84
2022/07/07 09:56:24;;;;;;;3.05;0.93;;;;;;;;;;5072080;28;20379;-84
2022/07/07 09:58:50;;;;;;;41.08;3.88;;;;;;;;;;5071912;28;20390;-84
2022/07/07 10:01:17;;;;;;;205.02;19.27;;;;;;;;;;5071908;28;20853;-84
2022/07/07 10:03:43;;;;;;;214.82;16.73;;;;;;;;;;5071523;28;20388;-84
2022/07/07 10:06:13;;;;;;;367.38;25.80;;;;;;;;;;5068150;28;20412;-84
2022/07/07 10:08:48;;;;;;;34.17;3.42;;;;;;;;;;5069271;28;20450;-83
2022/07/07 10:11:17;;;;;;;136.10;8.73;;;;;;;;;;5069864;28;20376;-84
2022/07/07 10:13:44;;;;;;;445.92;35.42;;;;;;;;;;5069418;28;20380;-84
2022/07/07 10:16:10;;;;;;;67.82;6.03;;;;;;;;;;5071178;28;20592;-84
2022/07/07 10:18:45;;;;;;;144.35;10.70;;;;;;;;;;5070252;28;20368;-83
2022/07/07 10:21:13;;;;;;;77.90;7.35;;;;;;;;;;5070295;28;20372;-84
2022/07/07 10:23:39;;;;;;;60.25;4.70;;;;;;;;;;5069638;28;20387;-83
2022/07/07 10:26:08;;;;;;;2.60;0.95;;;;;;;;;;5070583;28;20372;-83
2022/07/07 10:28:53;;;;;;;3.53;0.82;;;;;;;;;;5069360;28;20384;-83
2022/07/07 10:31:23;;;;;;;3.08;0.90;;;;;;;;;;5069414;28;20972;-83
2022/07/07 10:33:56;;;;;;;7.95;1.05;;;;;;;;;;5070284;28;20395;-83
2022/07/07 10:36:22;;;;;;;6.67;0.97;;;;;;;;;;5068117;28;20452;-83
2022/07/07 10:38:52;;;;;;;4.03;1.10;;;;;;;;;;5070443;28;20376;-83
2022/07/07 10:41:21;;;;;;;5.43;0.90;;;;;;;;;;5070022;28;20478;-83
2022/07/07 10:43:48;;;;;;;3.30;0.82;;;;;;;;;;5070497;28;20375;-85
2022/07/07 10:46:14;;;;;;;5.72;1.10;;;;;;;;;;5070550;28;20404;-83
2022/07/07 10:48:42;;;;;;;1.45;0.98;;;;;;;;;;5070497;28;20448;-83
2022/07/07 10:51:15;;;;;;;4.05;1.00;;;;;;;;;;5070069;28;20845;-82
2022/07/07 10:53:54;;;;;;;7.63;0.93;;;;;;;;;;5071720;28;20451;-83
2022/07/07 10:56:20;;;;;;;2.60;0.90;;;;;;;;;;5071697;28;20800;-83
2022/07/07 10:58:53;;;;;;;15.48;2.53;;;;;;;;;;5068190;28;20869;-83
2022/07/07 11:01:19;;;;;;;2.03;0.80;;;;;;;;;;5064424;28;20430;-82
2022/07/07 11:03:45;;;;;;;1.58;0.90;;;;;;;;;;5062298;28;20413;-82
2022/07/07 11:06:11;;;;;;;1.88;0.90;;;;;;;;;;5068691;28;20418;-82
2022/07/07 11:08:38;;;;;;;1.83;0.88;;;;;;;;;;5082458;28;20429;-82
2022/07/07 11:11:05;;;;;;;2.00;0.82;;;;;;;;;;5070961;28;20378;-82
2022/07/07 11:13:32;;;;;;;2.90;0.90;;;;;;;;;;5070605;28;20733;-83
2022/07/07 11:16:11;;;;;;;2.28;0.90;;;;;;;;;;5071124;28;20875;-83
2022/07/07 11:18:37;;;;;;;1.15;0.60;;;;;;;;;;5071965;28;20384;-83
2022/07/07 11:21:04;;;;;;;1.23;0.70;;;;;;;;;;5075092;28;20399;-82
2022/07/07 11:23:44;;;;;;;1.67;0.70;;;;;;;;;;5075077;28;20406;-84
2022/07/07 11:26:10;;;;;;;0.93;0.60;;;;;;;;;;5074940;28;20376;-83
2022/07/07 11:28:37;;;;;;;3.28;0.80;;;;;;;;;;5075143;28;20382;-83
2022/07/07 11:31:04;;;;;;;0.88;0.60;;;;;;;;;;5075056;28;20379;-82
2022/07/07 11:33:30;;;;;;;2.25;0.80;;;;;;;;;;5075006;28;20733;-83
2022/07/07 11:35:56;;;;;;;2.38;0.70;;;;;;;;;;5074838;28;20471;-82
2022/07/07 11:38:28;;;;;;;1.90;0.70;;;;;;;;;;5073705;28;20740;-82
2022/07/07 11:40:54;;;;;;;1.77;0.90;;;;;;;;;;5074414;28;20384;-83
2022/07/07 11:43:24;;;;;;;2.83;0.60;;;;;;;;;;5074081;28;20387;-82
2022/07/07 11:45:51;;;;;;;2.53;0.60;;;;;;;;;;5074083;28;20433;-81
2022/07/07 11:48:17;;;;;;;0.93;0.60;;;;;;;;;;5074602;28;20427;-81
2022/07/07 11:50:44;;;;;;;3.35;0.70;;;;;;;;;;5074593;28;20445;-82
2022/07/07 11:53:11;;;;;;;1.20;0.50;;;;;;;;;;5074328;28;20451;-82
2022/07/07 11:55:37;;;;;;;1.08;0.60;;;;;;;;;;5074446;28;20368;-84
2022/07/07 11:58:07;;;;;;;0.80;0.60;;;;;;;;;;5074489;28;20379;-81
2022/07/07 12:00:34;;;;;;;1.70;0.40;;;;;;;;;;5073163;28;20429;-81
2022/07/07 12:03:01;;;;;;;1.45;0.50;;;;;;;;;;5074318;28;20470;-81
2022/07/07 12:05:28;;;;;;;2.00;0.40;;;;;;;;;;5074301;28;20376;-81
2022/07/07 12:08:20;;;;;;;1.80;0.50;;;;;;;;;;5074214;28;20407;-81
2022/07/07 12:10:53;;;;;;;0.65;0.40;;;;;;;;;;5073278;28;20380;-81
2022/07/07 12:13:25;;;;;;;1.98;0.50;;;;;;;;;;5074149;28;20391;-84
2022/07/07 12:15:53;;;;;;;3.03;2.33;;;;;;;;;;5074163;28;20424;-82
2022/07/07 12:18:39;;;;;;;2.13;0.50;;;;;;;;;;5074096;28;20376;-83
2022/07/07 12:21:07;;;;;;;0.60;0.50;;;;;;;;;;5073907;28;20414;-83
2022/07/07 12:23:36;;;;;;;0.82;0.50;;;;;;;;;;5073753;28;20467;-83
2022/07/07 12:26:09;;;;;;;1.00;0.60;;;;;;;;;;5073938;28;20376;-81
2022/07/07 12:28:35;;;;;;;2.35;1.52;;;;;;;;;;5073786;28;20908;-83
2022/07/07 12:31:01;;;;;;;2.00;0.60;;;;;;;;;;5073559;28;20467;-82
2022/07/07 12:33:28;;;;;;;2.10;0.60;;;;;;;;;;5073650;28;20794;-82
2022/07/07 12:35:58;;;;;;;1.98;0.55;;;;;;;;;;5073588;28;20470;-83
2022/07/07 12:38:35;;;;;;;1.08;0.50;;;;;;;;;;5073711;28;20451;-82
2022/07/07 12:41:01;;;;;;;1.73;0.70;;;;;;;;;;5077935;28;20461;-82
2022/07/07 12:43:31;;;;;;;2.28;0.60;;;;;;;;;;5093834;28;20406;-83
2022/07/07 12:46:10;;;;;;;3.33;0.65;;;;;;;;;;5093833;28;20890;-81
2022/07/07 12:48:50;;;;;;;1.00;0.60;;;;;;;;;;5093734;28;20389;-81
2022/07/07 12:51:17;;;;;;;1.40;0.60;;;;;;;;;;5093598;28;20427;-81
2022/07/07 12:53:43;;;;;;;0.70;0.50;;;;;;;;;;5087479;28;20398;-81
2022/07/07 12:56:12;;;;;;;3.40;0.70;;;;;;;;;;5073035;28;20383;-81
2022/07/07 12:58:55;;;;;;;1.42;0.40;;;;;;;;;;5067034;28;20414;-81
2022/07/07 13:01:22;;;;;;;2.00;0.63;;;;;;;;;;5073276;28;20361;-82
2022/07/07 13:03:51;;;;;;;2.90;0.70;;;;;;;;;;5073180;28;20372;-81
2022/07/07 13:06:17;;;;;;;1.88;0.60;;;;;;;;;;5072984;28;20853;-82
2022/07/07 13:08:43;;;;;;;3.05;0.70;;;;;;;;;;5076189;28;20737;-82
2022/07/07 13:11:10;;;;;;;1.10;0.80;;;;;;;;;;5093301;28;20408;-83
2022/07/07 13:13:36;;;;;;;1.60;0.60;;;;;;;;;;5091836;28;20713;-81
2022/07/07 13:16:02;;;;;;;1.35;0.70;;;;;;;;;;5093258;28;20381;-83
2022/07/07 13:18:28;;;;;;;2.83;0.80;;;;;;;;;;5093117;28;20392;-82
2022/07/07 13:20:55;;;;;;;2.10;0.60;;;;;;;;;;5093265;28;20871;-83
2022/07/07 13:23:22;;;;;;;1.80;0.63;;;;;;;;;;5093009;28;20425;-83
2022/07/07 13:25:48;;;;;;;1.63;0.70;;;;;;;;;;5093050;28;20386;-82
2022/07/07 13:28:14;;;;;;;2.05;0.60;;;;;;;;;;5092902;28;20402;-82
2022/07/07 13:30:40;;;;;;;1.67;0.60;;;;;;;;;;5092996;28;20378;-82
2022/07/07 13:33:06;;;;;;;4.57;0.60;;;;;;;;;;5092952;28;20393;-81
2022/07/07 13:35:32;;;;;;;2.15;0.70;;;;;;;;;;5092554;28;20382;-81
2022/07/07 13:38:01;;;;;;;2.23;0.60;;;;;;;;;;5092805;28;20894;-81
2022/07/07 13:40:27;;;;;;;4.70;0.80;;;;;;;;;;5092564;28;20386;-81
2022/07/07 13:42:53;;;;;;;0.93;0.60;;;;;;;;;;5091160;28;20400;-81
2022/07/07 13:45:19;;;;;;;3.38;0.82;;;;;;;;;;5092648;28;20869;-81
2022/07/07 13:47:45;;;;;;;5.37;0.80;;;;;;;;;;5092698;28;20406;-81
2022/07/07 13:50:11;;;;;;;1.63;0.70;;;;;;;;;;5092794;28;20374;-81
2022/07/07 13:52:38;;;;;;;2.28;0.50;;;;;;;;;;5087773;28;20732;-81
2022/07/07 13:55:04;;;;;;;3.10;0.60;;;;;;;;;;5072148;28;20380;-81
2022/07/07 13:57:33;;;;;;;2.83;0.70;;;;;;;;;;5072387;28;20386;-81
2022/07/07 14:00:00;;;;;;;2.57;0.77;;;;;;;;;;5072250;28;20394;-80
2022/07/07 14:02:26;;;;;;;5.60;0.75;;;;;;;;;;5072578;28;20864;-82
2022/07/07 14:04:52;;;;;;;5.40;0.77;;;;;;;;;;5072382;28;20915;-82
2022/07/07 14:07:18;;;;;;;2.50;0.70;;;;;;;;;;5072381;28;20948;-82
2022/07/07 14:09:44;;;;;;;3.13;0.63;;;;;;;;;;5071078;28;20479;-82
2022/07/07 14:12:10;;;;;;;7.28;0.98;;;;;;;;;;5072159;28;20388;-82
2022/07/07 14:14:36;;;;;;;2.17;0.70;;;;;;;;;;5072055;28;20383;-82
2022/07/07 14:17:03;;;;;;;1.90;0.90;;;;;;;;;;5072152;28;20388;-81
2022/07/07 14:19:29;;;;;;;1.30;0.60;;;;;;;;;;5070888;28;20780;-80
2022/07/07 14:21:55;;;;;;;1.60;0.60;;;;;;;;;;5072066;28;20849;-80
2022/07/07 14:24:21;;;;;;;2.85;0.80;;;;;;;;;;5072117;28;20394;-80
2022/07/07 14:26:47;;;;;;;1.55;0.90;;;;;;;;;;5071860;28;20414;-81
2022/07/07 14:29:13;;;;;;;2.15;0.70;;;;;;;;;;5072023;28;20395;-81
2022/07/07 14:31:39;;;;;;;1.15;0.70;;;;;;;;;;5071832;28;20423;-81
2022/07/07 14:34:05;;;;;;;1.40;0.68;;;;;;;;;;5078450;28;20398;-80
2022/07/07 14:36:32;;;;;;;1.50;0.85;;;;;;;;;;5077906;28;20394;-83
2022/07/07 14:38:58;;;;;;;2.35;0.90;;;;;;;;;;5072986;28;20382;-81
2022/07/07 14:41:24;;;;;;;1.15;0.80;;;;;;;;;;5085119;28;20378;-81
2022/07/07 14:43:50;;;;;;;4.82;1.13;;;;;;;;;;5079185;28;20871;-81
2022/07/07 14:46:16;;;;;;;2.80;0.77;;;;;;;;;;5086315;28;20381;-81